KMSY

Louis Armstrong New Orleans International Airport

New Orleans, Louisiana, USA
METAR KMSY 200653Z 13008KT 10SM FEW065 SCT250 22/21 A3014 RMK AO2 SLP209 T02170206
Observed Flight Rules
Feb-20 @ 06:53 UTC (38 minutes ago) Visual Flight Rules
Wind Visibility Clouds
130° at 8 knots 10 miles
  • Few at 6,500' AGL
  • Scattered at 25,000' AGL
Temperatures Readings
Current 22°C / 72°F
Dewpoint 21°C / 70°F
Humidity 94%
Altimeter 30.14" Hg
Pressure 1020.9 hPa
Elevation 5
METAR KMSY 200653Z 13008KT 10SM FEW065 SCT250 22/21 A3014 RMK AO2 SLP209 T02170206
Observed Flight Rules
Feb-20 @ 06:53 UTC
(38 minutes ago)
VFR
Wind Visibility
130° at 8 knots 10 miles
Clouds
  • Few at 6,500' AGL
  • Scattered at 25,000' AGL
Temperature Dewpoint
22°C / 72°F 21°C / 70°F
Humidity Altimeter Pressure
94% 30.14" Hg 1020.9 hPa